createdAt,value
2018-02-10T00:00:40.931Z,69.58
2018-02-10T00:03:08.469Z,69.43
2018-02-10T00:05:36.033Z,69.71
2018-02-10T00:08:03.799Z,69.54
2018-02-10T00:10:31.356Z,69.65
2018-02-10T00:12:58.889Z,69.82
2018-02-10T00:15:26.461Z,69.87
2018-02-10T00:17:54.345Z,69.83
2018-02-10T00:20:21.889Z,70.06
2018-02-10T00:22:49.460Z,69.85
2018-02-10T00:25:16.992Z,69.83
2018-02-10T00:27:44.546Z,70.23
2018-02-10T00:30:12.087Z,70.32
2018-02-10T00:32:39.622Z,69.95
2018-02-10T00:35:07.199Z,70.25
2018-02-10T00:37:34.749Z,70.45
2018-02-10T00:40:02.286Z,70.59
2018-02-10T00:42:29.863Z,70.40
2018-02-10T00:44:57.422Z,70.80
2018-02-10T00:47:25.031Z,71.03
2018-02-10T00:49:52.687Z,71.04
2018-02-10T00:52:20.219Z,71.10
2018-02-10T00:54:47.807Z,71.17
2018-02-10T00:57:15.352Z,71.05
2018-02-10T00:59:42.886Z,71.25
2018-02-10T01:02:10.437Z,71.66
2018-02-10T01:04:37.975Z,71.60
2018-02-10T01:07:05.531Z,72.04
2018-02-10T01:09:33.059Z,72.00
2018-02-10T01:12:00.633Z,71.69
2018-02-10T01:14:28.249Z,72.35
2018-02-10T01:16:56.113Z,72.49
2018-02-10T01:19:23.663Z,72.28
2018-02-10T01:21:51.213Z,72.80
2018-02-10T01:24:18.751Z,72.72
2018-02-10T01:26:46.324Z,72.72
2018-02-10T01:29:13.864Z,72.90
2018-02-10T01:31:41.688Z,72.16
2018-02-10T01:34:09.568Z,72.38
2018-02-10T01:36:37.090Z,72.67
2018-02-10T01:39:04.625Z,72.71
2018-02-10T01:41:32.445Z,72.82
2018-02-10T01:44:00.209Z,73.03
2018-02-10T01:46:27.827Z,73.26
2018-02-10T01:48:55.372Z,72.80
2018-02-10T01:51:22.906Z,73.10
2018-02-10T01:53:50.452Z,72.94
2018-02-10T01:56:18.316Z,73.21
2018-02-10T01:58:45.879Z,73.50
2018-02-10T02:01:13.437Z,73.39
2018-02-10T02:03:40.961Z,73.42
2018-02-10T02:06:08.526Z,73.55
2018-02-10T02:08:36.087Z,73.18
2018-02-10T02:11:03.627Z,73.07
2018-02-10T02:13:31.223Z,73.22
2018-02-10T02:15:58.751Z,73.57
2018-02-10T02:18:26.341Z,74.36
2018-02-10T02:20:53.869Z,74.14
2018-02-10T02:23:21.413Z,73.88
2018-02-10T02:25:49.247Z,74.17
2018-02-10T02:28:16.771Z,74.00
2018-02-10T02:30:44.304Z,73.76
2018-02-10T02:33:11.845Z,74.17
2018-02-10T02:35:39.383Z,74.10
2018-02-10T02:38:06.962Z,74.46
2018-02-10T02:40:34.517Z,74.67
2018-02-10T02:43:02.380Z,74.28
2018-02-10T02:45:29.950Z,74.35
2018-02-10T02:47:57.472Z,74.66
2018-02-10T02:50:25.262Z,74.52
2018-02-10T02:52:52.857Z,74.35
2018-02-10T02:55:20.386Z,74.83
2018-02-10T02:57:47.917Z,74.43
2018-02-10T03:00:15.498Z,74.07
2018-02-10T03:02:43.099Z,74.53
2018-02-10T03:05:10.934Z,74.72
2018-02-10T03:07:38.494Z,74.46
2018-02-10T03:10:06.020Z,74.52
2018-02-10T03:12:33.534Z,74.06
2018-02-10T03:15:01.398Z,74.82
2018-02-10T03:17:28.960Z,74.99
2018-02-10T03:19:56.495Z,74.94
2018-02-10T03:22:24.056Z,74.60
2018-02-10T03:24:51.587Z,74.81
2018-02-10T03:27:19.114Z,74.10
2018-02-10T03:29:46.665Z,74.35
2018-02-10T03:32:14.210Z,74.57
2018-02-10T03:34:41.932Z,74.82
2018-02-10T03:37:09.500Z,74.58
2018-02-10T03:39:37.300Z,74.55
2018-02-10T03:42:04.852Z,74.61
2018-02-10T03:44:32.464Z,74.44
2018-02-10T03:46:59.988Z,74.24
2018-02-10T03:49:27.522Z,74.52
2018-02-10T03:51:55.088Z,74.82
2018-02-10T03:54:22.610Z,75.05
2018-02-10T03:56:50.187Z,75.32
2018-02-10T03:59:17.768Z,75.19
2018-02-10T04:01:45.327Z,74.72
2018-02-10T04:04:13.114Z,74.79
2018-02-10T04:06:40.679Z,74.94
2018-02-10T04:09:08.246Z,75.11
2018-02-10T04:11:35.773Z,75.05
2018-02-10T04:14:03.348Z,75.19
2018-02-10T04:16:30.908Z,75.26
2018-02-10T04:18:58.438Z,74.89
2018-02-10T04:21:26.010Z,74.96
2018-02-10T04:23:53.543Z,75.16
2018-02-10T04:26:21.076Z,75.35
2018-02-10T04:28:48.930Z,75.67
2018-02-10T04:31:16.784Z,74.86
2018-02-10T04:33:44.677Z,74.66
2018-02-10T04:36:12.267Z,74.85
2018-02-10T04:38:39.835Z,75.02
2018-02-10T04:41:07.367Z,74.81
2018-02-10T04:43:35.225Z,74.27
2018-02-10T04:46:02.780Z,74.47
2018-02-10T04:48:30.344Z,74.45
2018-02-10T04:50:57.907Z,74.95
2018-02-10T04:53:25.457Z,74.92
2018-02-10T04:55:52.996Z,74.85
2018-02-10T04:58:21.189Z,74.77
2018-02-10T05:00:48.861Z,74.96
2018-02-10T05:03:16.401Z,75.10
2018-02-10T05:05:43.978Z,74.93
2018-02-10T05:08:11.515Z,74.85
2018-02-10T05:10:39.298Z,74.83
2018-02-10T05:13:06.860Z,74.96
2018-02-10T05:15:34.388Z,75.21
2018-02-10T05:18:01.907Z,74.55
2018-02-10T05:20:29.470Z,74.51
2018-02-10T05:22:56.992Z,74.65
2018-02-10T05:25:24.569Z,74.14
2018-02-10T05:27:52.122Z,74.24
2018-02-10T05:30:19.643Z,74.58
2018-02-10T05:32:47.463Z,74.81
2018-02-10T05:35:15.047Z,74.32
2018-02-10T05:37:42.594Z,74.78
2018-02-10T05:40:10.143Z,74.84
2018-02-10T05:42:37.704Z,75.07
2018-02-10T05:45:05.233Z,75.25
2018-02-10T05:47:32.765Z,75.05
2018-02-10T05:50:00.331Z,75.20
2018-02-10T05:52:27.862Z,75.27
2018-02-10T05:54:55.407Z,75.37
2018-02-10T05:57:22.980Z,75.36
2018-02-10T05:59:50.817Z,75.23
2018-02-10T06:02:18.344Z,75.24
2018-02-10T06:04:45.934Z,75.09
2018-02-10T06:07:13.469Z,74.85
2018-02-10T06:09:41.031Z,74.73
2018-02-10T06:12:08.589Z,74.95
2018-02-10T06:14:36.396Z,74.92
2018-02-10T06:17:03.919Z,74.78
2018-02-10T06:19:31.486Z,74.76
2018-02-10T06:21:59.024Z,74.99
2018-02-10T06:24:26.786Z,75.20
2018-02-10T06:26:54.346Z,75.30
2018-02-10T06:29:22.169Z,75.13
2018-02-10T06:31:49.697Z,75.13
2018-02-10T06:34:17.261Z,75.11
2018-02-10T06:36:44.852Z,74.71
2018-02-10T06:39:12.382Z,74.90
2018-02-10T06:41:40.285Z,75.08
2018-02-10T06:44:07.832Z,74.95
2018-02-10T06:46:35.360Z,75.22
2018-02-10T06:49:03.268Z,75.32
2018-02-10T06:51:31.038Z,75.15
2018-02-10T06:53:58.576Z,74.87
2018-02-10T06:56:26.455Z,75.32
2018-02-10T06:58:53.973Z,75.25
2018-02-10T07:01:21.781Z,75.23
2018-02-10T07:03:49.342Z,75.53
2018-02-10T07:06:16.886Z,75.48
2018-02-10T07:08:44.909Z,75.40
2018-02-10T07:11:12.741Z,75.56
2018-02-10T07:13:40.306Z,75.53
2018-02-10T07:16:07.874Z,75.46
2018-02-10T07:18:35.450Z,75.52
2018-02-10T07:21:03.000Z,75.94
2018-02-10T07:23:30.549Z,75.72
2018-02-10T07:25:58.118Z,75.63
2018-02-10T07:28:25.650Z,75.62
2018-02-10T07:30:53.440Z,75.58
2018-02-10T07:33:21.030Z,75.73
2018-02-10T07:35:48.969Z,75.82
2018-02-10T07:38:16.834Z,75.78
2018-02-10T07:40:44.462Z,76.07
2018-02-10T07:43:11.990Z,76.00
2018-02-10T07:45:39.544Z,76.16
2018-02-10T07:48:07.131Z,76.25
2018-02-10T07:50:34.680Z,76.39
2018-02-10T07:53:02.269Z,76.55
2018-02-10T07:55:29.822Z,76.32
2018-02-10T07:57:57.364Z,76.06
2018-02-10T08:00:24.923Z,76.13
2018-02-10T08:02:52.857Z,76.25
2018-02-10T08:05:20.401Z,76.45
2018-02-10T08:07:47.961Z,76.39
2018-02-10T08:10:15.518Z,75.72
2018-02-10T08:12:43.412Z,75.86
2018-02-10T08:15:11.012Z,75.57
2018-02-10T08:17:38.558Z,75.77
2018-02-10T08:20:06.206Z,76.27
2018-02-10T08:22:33.747Z,76.54
2018-02-10T08:25:01.298Z,76.47
2018-02-10T08:27:28.837Z,76.54
2018-02-10T08:29:56.380Z,76.45
2018-02-10T08:32:24.321Z,76.33
2018-02-10T08:34:51.871Z,76.49
2018-02-10T08:37:19.446Z,76.56
2018-02-10T08:39:47.379Z,76.05
2018-02-10T08:42:14.925Z,76.17
2018-02-10T08:44:42.854Z,76.66
2018-02-10T08:47:10.425Z,76.44
2018-02-10T08:49:37.955Z,76.80
2018-02-10T08:52:05.639Z,76.67
2018-02-10T08:54:33.294Z,76.81
2018-02-10T08:57:00.818Z,76.63
2018-02-10T08:59:28.419Z,76.46
2018-02-10T09:01:56.004Z,77.03
2018-02-10T09:04:23.566Z,76.81
2018-02-10T09:06:51.114Z,76.51
2018-02-10T09:09:18.691Z,76.21
2018-02-10T09:11:46.213Z,76.48
2018-02-10T09:14:13.837Z,76.49
2018-02-10T09:16:41.457Z,76.57
2018-02-10T09:19:08.998Z,76.24
2018-02-10T09:21:36.577Z,76.13
2018-02-10T09:24:04.219Z,76.55
2018-02-10T09:26:31.756Z,76.31
2018-02-10T09:28:59.639Z,76.11
2018-02-10T09:31:27.312Z,76.21
2018-02-10T09:33:54.871Z,76.14
2018-02-10T09:36:22.721Z,75.92
2018-02-10T09:38:50.304Z,76.04
2018-02-10T09:41:17.838Z,75.96
2018-02-10T09:43:45.383Z,76.15
2018-02-10T09:46:13.086Z,76.18
2018-02-10T09:48:40.626Z,76.03
2018-02-10T09:51:08.305Z,76.57
2018-02-10T09:53:41.857Z,76.50
2018-02-10T09:56:09.469Z,76.83
2018-02-10T09:58:37.027Z,76.93
2018-02-10T10:01:04.592Z,77.77
2018-02-10T10:03:32.126Z,77.39
2018-02-10T10:05:59.661Z,77.38
2018-02-10T10:08:29.213Z,77.98
2018-02-10T10:10:57.072Z,77.80
2018-02-10T10:13:24.633Z,77.73
2018-02-10T10:15:52.190Z,77.29
2018-02-10T10:18:19.719Z,77.74
2018-02-10T10:20:53.453Z,77.17
2018-02-10T10:23:20.980Z,77.01
2018-02-10T10:25:48.515Z,77.55
2018-02-10T10:28:16.091Z,76.98
2018-02-10T10:30:43.641Z,76.90
2018-02-10T10:33:11.288Z,76.93
2018-02-10T10:35:38.949Z,76.50
2018-02-10T10:38:06.487Z,76.25
2018-02-10T10:40:34.068Z,76.20
2018-02-10T10:43:01.630Z,75.89
2018-02-10T10:45:29.186Z,76.17
2018-02-10T10:47:57.030Z,75.67
2018-02-10T10:50:24.688Z,75.41
2018-02-10T10:52:52.226Z,75.22
2018-02-10T10:55:19.774Z,75.34
2018-02-10T10:57:47.361Z,75.10
2018-02-10T11:00:14.889Z,75.07
2018-02-10T11:02:42.407Z,74.78
2018-02-10T11:05:10.276Z,74.44
2018-02-10T11:07:38.135Z,74.71
2018-02-10T11:10:05.669Z,73.87
2018-02-10T11:12:33.570Z,74.03
2018-02-10T11:15:02.015Z,73.46
2018-02-10T11:17:29.574Z,72.96
2018-02-10T11:19:57.128Z,72.38
2018-02-10T11:22:25.032Z,72.53
2018-02-10T11:24:52.584Z,72.01
2018-02-10T11:27:20.143Z,71.42
2018-02-10T11:29:48.121Z,71.55
2018-02-10T11:32:15.668Z,71.22
2018-02-10T11:34:43.558Z,71.10
2018-02-10T11:37:11.109Z,71.60
2018-02-10T11:39:38.666Z,70.53
2018-02-10T11:42:06.263Z,70.59
2018-02-10T11:44:33.787Z,70.69
2018-02-10T11:47:01.349Z,69.90
2018-02-10T11:49:28.937Z,69.17
2018-02-10T11:51:56.617Z,69.12
2018-02-10T11:54:24.145Z,66.68
2018-02-10T11:56:52.006Z,65.16
2018-02-10T11:59:19.581Z,64.94
2018-02-10T12:01:47.438Z,64.23
2018-02-10T12:04:14.998Z,63.52
2018-02-10T12:06:42.541Z,62.89
2018-02-10T12:09:10.638Z,61.94
2018-02-10T12:11:38.200Z,62.41
2018-02-10T12:14:05.739Z,63.26
2018-02-10T12:16:33.291Z,61.81
2018-02-10T12:19:00.889Z,61.42
2018-02-10T12:21:28.486Z,61.49
2018-02-10T12:23:56.066Z,61.66
2018-02-10T12:26:23.967Z,63.45
2018-02-10T12:28:51.574Z,64.52
2018-02-10T12:31:19.122Z,64.53
2018-02-10T12:33:46.707Z,64.40
2018-02-10T12:36:14.251Z,65.61
2018-02-10T12:38:41.811Z,66.04
2018-02-10T12:41:09.381Z,66.26
2018-02-10T12:43:36.975Z,66.54
2018-02-10T12:46:04.590Z,65.96
2018-02-10T12:48:37.781Z,65.54
2018-02-10T12:51:05.383Z,65.25
2018-02-10T12:53:32.908Z,65.51
2018-02-10T12:56:00.496Z,64.88
2018-02-10T12:58:28.060Z,65.33
2018-02-10T13:00:55.717Z,64.90
2018-02-10T13:03:23.281Z,64.11
2018-02-10T13:05:50.846Z,62.71
2018-02-10T13:08:18.406Z,62.70
2018-02-10T13:10:46.355Z,62.58
2018-02-10T13:13:14.176Z,62.75
2018-02-10T13:15:41.711Z,62.31
2018-02-10T13:18:09.257Z,62.66
2018-02-10T13:20:36.844Z,61.81
2018-02-10T13:23:04.394Z,60.95
2018-02-10T13:25:32.293Z,59.86
2018-02-10T13:27:59.850Z,59.53
2018-02-10T13:30:27.460Z,60.95
2018-02-10T13:32:55.138Z,62.08
2018-02-10T13:35:22.677Z,62.22
2018-02-10T13:37:50.239Z,63.16
2018-02-10T13:40:17.807Z,63.86
2018-02-10T13:42:45.378Z,64.92
2018-02-10T13:45:12.925Z,64.74
2018-02-10T13:47:40.550Z,64.84
2018-02-10T13:50:08.091Z,65.18
2018-02-10T13:52:35.806Z,65.69
2018-02-10T13:55:03.363Z,65.59
2018-02-10T13:57:30.911Z,65.83
2018-02-10T13:59:58.487Z,65.32
2018-02-10T14:02:26.083Z,65.31
2018-02-10T14:04:53.639Z,65.54
2018-02-10T14:07:21.223Z,66.00
2018-02-10T14:09:49.099Z,65.69
2018-02-10T14:12:16.893Z,65.87
2018-02-10T14:14:44.538Z,66.24
2018-02-10T14:17:12.144Z,66.17
2018-02-10T14:19:39.678Z,66.81
2018-02-10T14:22:07.246Z,67.91
2018-02-10T14:24:34.832Z,67.85
2018-02-10T14:27:02.396Z,68.15
2018-02-10T14:29:29.933Z,68.20
2018-02-10T14:31:57.506Z,67.48
2018-02-10T14:34:25.102Z,67.66
2018-02-10T14:36:52.666Z,67.76
2018-02-10T14:39:20.484Z,68.22
2018-02-10T14:41:48.033Z,68.40
2018-02-10T14:44:15.642Z,68.65
2018-02-10T14:46:43.536Z,68.95
2018-02-10T14:49:11.102Z,68.73
2018-02-10T14:51:38.696Z,68.62
2018-02-10T14:54:06.310Z,68.73
2018-02-10T14:56:33.850Z,69.17
2018-02-10T14:59:01.446Z,69.20
2018-02-10T15:01:29.048Z,68.95
2018-02-10T15:03:56.863Z,69.30
2018-02-10T15:06:24.400Z,69.40
2018-02-10T15:08:52.015Z,69.18
2018-02-10T15:11:19.543Z,69.19
2018-02-10T15:13:47.073Z,68.73
2018-02-10T15:16:14.631Z,68.94
2018-02-10T15:18:42.545Z,69.41
2018-02-10T15:21:10.149Z,69.62
2018-02-10T15:23:37.823Z,69.41
2018-02-10T15:26:05.673Z,69.87
2018-02-10T15:28:33.220Z,70.20
2018-02-10T15:31:12.756Z,70.01
2018-02-10T15:33:51.980Z,70.09
2018-02-10T15:36:19.550Z,70.14
2018-02-10T15:38:47.079Z,70.03
2018-02-10T15:41:14.625Z,70.13
2018-02-10T15:43:42.526Z,70.26
2018-02-10T15:46:10.075Z,70.10
2018-02-10T15:48:37.612Z,70.04
2018-02-10T15:51:05.199Z,70.33
2018-02-10T15:53:32.733Z,70.39
2018-02-10T15:56:00.289Z,70.10
2018-02-10T15:58:27.904Z,70.02
2018-02-10T16:00:55.482Z,70.19
2018-02-10T16:03:23.009Z,70.42
2018-02-10T16:05:50.563Z,70.83
2018-02-10T16:08:18.108Z,70.58
2018-02-10T16:10:45.630Z,70.80
2018-02-10T16:13:13.447Z,70.73
2018-02-10T16:15:40.971Z,70.84
2018-02-10T16:18:08.770Z,70.55
2018-02-10T16:20:36.336Z,70.63
2018-02-10T16:23:03.896Z,70.72
2018-02-10T16:25:31.436Z,71.04
2018-02-10T16:27:59.015Z,71.01
2018-02-10T16:30:26.631Z,70.73
2018-02-10T16:32:54.240Z,70.65
2018-02-10T16:35:22.109Z,70.61
2018-02-10T16:37:49.638Z,70.78
2018-02-10T16:40:17.442Z,70.86
2018-02-10T16:42:44.995Z,70.56
2018-02-10T16:45:12.539Z,70.57
2018-02-10T16:47:40.088Z,70.58
2018-02-10T16:50:07.658Z,70.93
2018-02-10T16:52:35.196Z,70.76
2018-02-10T16:55:02.758Z,70.51
2018-02-10T16:57:30.414Z,70.27
2018-02-10T16:59:58.048Z,70.64
2018-02-10T17:02:25.667Z,70.59
2018-02-10T17:04:53.235Z,71.24
2018-02-10T17:07:20.767Z,71.07
2018-02-10T17:09:48.319Z,71.23
2018-02-10T17:12:16.146Z,71.13
2018-02-10T17:14:43.747Z,71.18
2018-02-10T17:17:11.324Z,71.38
2018-02-10T17:19:38.898Z,71.34
2018-02-10T17:22:06.458Z,71.05
2018-02-10T17:24:33.999Z,71.04
2018-02-10T17:27:01.709Z,71.25
2018-02-10T17:29:29.572Z,71.14
2018-02-10T17:31:57.176Z,71.28
2018-02-10T17:34:24.725Z,71.16
2018-02-10T17:36:52.564Z,70.93
2018-02-10T17:39:20.118Z,70.98
2018-02-10T17:41:47.703Z,71.14
2018-02-10T17:44:15.275Z,71.29
2018-02-10T17:46:42.823Z,71.53
2018-02-10T17:49:10.414Z,71.51
2018-02-10T17:51:37.978Z,71.24
2018-02-10T17:54:05.531Z,71.23
2018-02-10T17:56:33.203Z,71.00
2018-02-10T17:59:00.742Z,70.73
2018-02-10T18:01:28.296Z,71.02
2018-02-10T18:03:55.874Z,71.03
2018-02-10T18:06:23.431Z,71.33
2018-02-10T18:08:51.130Z,71.27
2018-02-10T18:11:18.700Z,71.88
2018-02-10T18:13:46.495Z,71.59
2018-02-10T18:16:14.100Z,71.50
2018-02-10T18:18:41.672Z,71.43
2018-02-10T18:21:09.478Z,71.62
2018-02-10T18:23:37.038Z,71.94
2018-02-10T18:26:04.627Z,72.25
2018-02-10T18:28:32.464Z,72.27
2018-02-10T18:30:59.997Z,72.51
2018-02-10T18:33:27.581Z,72.61
2018-02-10T18:35:55.118Z,72.51
2018-02-10T18:38:22.689Z,72.57
2018-02-10T18:40:50.776Z,72.58
2018-02-10T18:43:18.324Z,72.66
2018-02-10T18:45:45.911Z,72.57
2018-02-10T18:48:13.552Z,72.81
2018-02-10T18:50:41.078Z,72.67
2018-02-10T18:53:08.603Z,72.60
2018-02-10T18:55:36.175Z,73.23
2018-02-10T18:58:03.937Z,72.88
2018-02-10T19:00:31.776Z,72.90
2018-02-10T19:02:59.407Z,73.09
2018-02-10T19:05:26.959Z,72.98
2018-02-10T19:07:54.486Z,72.77
2018-02-10T19:10:22.141Z,72.67
2018-02-10T19:12:50.059Z,72.75
2018-02-10T19:15:17.676Z,72.74
2018-02-10T19:17:45.536Z,72.70
2018-02-10T19:20:13.219Z,72.89
2018-02-10T19:22:40.799Z,73.04
2018-02-10T19:25:08.431Z,73.13
2018-02-10T19:27:36.150Z,73.06
2018-02-10T19:30:03.797Z,73.42
2018-02-10T19:32:31.415Z,73.44
2018-02-10T19:34:58.976Z,73.59
2018-02-10T19:37:26.566Z,73.21
2018-02-10T19:39:54.224Z,72.90
2018-02-10T19:42:21.934Z,73.14
2018-02-10T19:44:49.875Z,73.46
2018-02-10T19:47:17.538Z,73.40
2018-02-10T19:49:45.077Z,73.36
2018-02-10T19:52:12.636Z,73.07
2018-02-10T19:54:40.400Z,73.14
2018-02-10T19:57:07.991Z,73.50
2018-02-10T19:59:35.676Z,73.84
2018-02-10T20:02:03.358Z,73.72
2018-02-10T20:04:30.926Z,73.78
2018-02-10T20:06:58.604Z,73.82
2018-02-10T20:09:26.363Z,73.96
2018-02-10T20:11:53.896Z,74.03
2018-02-10T20:14:21.451Z,73.99
2018-02-10T20:16:49.042Z,73.93
2018-02-10T20:19:16.660Z,73.55
2018-02-10T20:21:44.196Z,73.67
2018-02-10T20:24:11.792Z,74.04
2018-02-10T20:26:39.417Z,74.21
2018-02-10T20:29:06.995Z,74.07
2018-02-10T20:31:34.585Z,74.11
2018-02-10T20:34:02.138Z,74.20
2018-02-10T20:36:29.814Z,74.28
2018-02-10T20:38:57.413Z,73.81
2018-02-10T20:41:25.003Z,74.27
2018-02-10T20:43:52.589Z,74.76
2018-02-10T20:46:20.344Z,74.27
2018-02-10T20:48:48.000Z,74.27
2018-02-10T20:51:15.581Z,74.06
2018-02-10T20:53:43.245Z,74.01
2018-02-10T20:56:10.787Z,73.88
2018-02-10T20:58:38.385Z,73.87
2018-02-10T21:01:06.360Z,74.53
2018-02-10T21:03:33.972Z,74.80
2018-02-10T21:06:01.547Z,74.62
2018-02-10T21:08:29.170Z,74.44
2018-02-10T21:10:56.778Z,74.35
2018-02-10T21:13:24.364Z,74.17
2018-02-10T21:15:51.957Z,74.02
2018-02-10T21:18:19.552Z,74.28
2018-02-10T21:20:47.129Z,74.46
2018-02-10T21:23:14.732Z,74.71
2018-02-10T21:25:42.535Z,74.55
2018-02-10T21:28:10.095Z,74.57
2018-02-10T21:30:37.688Z,74.74
2018-02-10T21:33:05.316Z,74.47
2018-02-10T21:35:32.918Z,74.51
2018-02-10T21:38:00.487Z,74.33
2018-02-10T21:40:28.099Z,74.53
2018-02-10T21:42:55.689Z,74.72
2018-02-10T21:45:23.309Z,75.13
2018-02-10T21:47:51.012Z,75.33
2018-02-10T21:50:18.568Z,75.62
2018-02-10T21:52:46.278Z,75.37
2018-02-10T21:55:13.928Z,75.21
2018-02-10T21:57:41.829Z,75.32
2018-02-10T22:00:09.470Z,75.47
2018-02-10T22:02:37.074Z,75.30
2018-02-10T22:05:04.868Z,75.29
2018-02-10T22:07:32.445Z,74.96
2018-02-10T22:10:00.354Z,75.03
2018-02-10T22:12:27.989Z,75.03
2018-02-10T22:14:55.595Z,74.87
2018-02-10T22:17:23.155Z,75.05
2018-02-10T22:19:50.697Z,75.07
2018-02-10T22:22:18.414Z,74.91
2018-02-10T22:24:46.083Z,76.12
2018-02-10T22:27:13.949Z,75.94
2018-02-10T22:29:41.525Z,75.82
2018-02-10T22:32:09.079Z,75.51
2018-02-10T22:34:36.662Z,75.25
2018-02-10T22:37:04.303Z,75.18
2018-02-10T22:39:31.871Z,75.19
2018-02-10T22:41:59.867Z,75.13
2018-02-10T22:44:27.499Z,74.98
2018-02-10T22:46:55.065Z,75.04
2018-02-10T22:49:22.655Z,75.27
2018-02-10T22:51:50.243Z,75.27
2018-02-10T22:54:17.830Z,75.26
2018-02-10T22:56:45.410Z,76.17
2018-02-10T22:59:13.038Z,76.58
2018-02-10T23:01:40.554Z,76.75
2018-02-10T23:04:08.319Z,77.44
2018-02-10T23:06:35.879Z,77.58
2018-02-10T23:09:03.445Z,78.29
2018-02-10T23:11:31.265Z,78.92
2018-02-10T23:13:58.869Z,79.51
2018-02-10T23:16:26.391Z,81.11
2018-02-10T23:18:54.117Z,80.93
2018-02-10T23:21:21.703Z,80.83
2018-02-10T23:23:49.240Z,80.15
2018-02-10T23:26:16.755Z,79.64
2018-02-10T23:28:44.592Z,79.58
2018-02-10T23:31:12.117Z,79.48
2018-02-10T23:33:40.140Z,79.47
2018-02-10T23:36:07.699Z,79.44
2018-02-10T23:38:35.224Z,79.25
2018-02-10T23:41:02.798Z,78.94
2018-02-10T23:43:30.374Z,78.44
2018-02-10T23:45:57.898Z,78.48
2018-02-10T23:48:25.431Z,77.88
2018-02-10T23:50:53.390Z,77.59
2018-02-10T23:53:20.967Z,77.46
2018-02-10T23:55:48.787Z,77.36
2018-02-10T23:58:16.370Z,77.12
